• Join FlightAware (Why Join?)
  • Login
  • US Flag 
Rudolph Flight #1: Arrived! 
08:00PM EST


 

Airport Tracker/Info


-or-


 

Live Flight TrackerFlight Track Log ✈ AAY875 ✈ 06-Apr-2014 ✈ KBGR - KPIE

Flight Track Log - Related Links

Times and Time Zones

All times are in EDT time to prevent confusion due to time zone crossing. See the AAY875 flight status page for this flight to view local times or setup timezone preferences in your user account.

Time Position Orientation Groundspeed Altitude Reporting Facility
EDT Latitude Longitude Course Direction KTS MPH feet Rate Location/Type
05:19PM 44.8528 -68.9092 228° Southwest 206 237 3,000  Level Boston Center
05:20PM 44.8086 -68.9789 228° Southwest 243 280 5,900 2,940 Climbing Boston Center
05:21PM 44.7386 -69.0686 222° Southwest 280 322 9,200 2,520 Climbing Boston Center
05:22PM 44.6828 -69.1558 228° Southwest 295 339 11,100 1,620 Climbing Boston Center
05:23PM 44.6081 -69.2517 222° Southwest 361 415 12,500 1,680 Climbing Boston Center
05:24PM 44.5331 -69.3617 226° Southwest 380 437 14,600 2,100 Climbing Boston Center
05:25PM 44.4556 -69.4719 225° Southwest 391 450 16,900 2,220 Climbing Boston Center
05:26PM 44.3714 -69.5808 223° Southwest 404 465 19,300 1,980 Climbing Boston Center
05:27PM 44.2878 -69.6892 223° Southwest 404 465 21,000 1,620 Climbing Boston Center
05:28PM 44.2014 -69.8017 223° Southwest 417 480 22,700 1,740 Climbing Boston Center
05:29PM 44.1183 -69.9186 225° Southwest 421 484 24,600 1,740 Climbing Boston Center
05:30PM 44.0347 -70.0339 225° Southwest 421 484 26,300 1,500 Climbing Boston Center
05:31PM 43.9492 -70.1436 223° Southwest 420 483 27,700 1,320 Climbing Boston Center
05:32PM 43.8628 -70.2531 222° Southwest 419 482 29,100 1,080 Climbing Boston Center
05:33PM 43.7817 -70.3647 225° Southwest 413 475 30,000 420 Climbing Boston Center
05:34PM 43.6997 -70.4722 224° Southwest 408 470 30,000  Level Boston Center
05:35PM 43.5975 -70.6006 222° Southwest 408 470 30,000  Level Boston Center
05:36PM 43.5158 -70.7125 225° Southwest 410 472 30,000  Level Boston Center
05:37PM 43.4336 -70.8208 224° Southwest 410 472 30,000  Level Boston Center
05:38PM 43.3508 -70.9258 223° Southwest 406 467 30,000  Level Boston Center
05:39PM 43.2689 -71.0300 223° Southwest 404 465 30,000  Level Boston Center
05:40PM 43.1861 -71.1367 223° Southwest 405 466 30,000  Level Boston Center
05:41PM 43.1031 -71.2436 223° Southwest 407 468 30,000  Level Boston Center
05:42PM 43.0217 -71.3483 223° Southwest 407 468 30,000  Level Boston Center
05:43PM 42.9264 -71.4700 223° Southwest 397 457 30,000  Level Boston Center
05:44PM 42.8428 -71.5764 223° Southwest 398 458 30,000  Level Boston Center
05:45PM 42.7603 -71.6794 223° Southwest 399 459 30,000  Level Boston Center
05:46PM 42.6786 -71.7822 223° Southwest 399 459 30,000  Level Boston Center
05:47PM 42.5972 -71.8822 222° Southwest 397 457 30,000  Level Boston Center
05:48PM 42.5161 -71.9833 223° Southwest 395 455 30,000  Level Boston Center
05:49PM 42.4339 -72.0844 222° Southwest 396 456 30,000  Level Boston Center
05:50PM 42.3514 -72.1878 223° Southwest 398 458 30,000  Level Boston Center
05:51PM 42.2681 -72.2906 222° Southwest 401 461 30,000  Level Boston Center
05:52PM 42.1836 -72.3933 222° Southwest 403 464 30,000 240 Level Boston Center
05:53PM 42.0825 -72.5169 222° Southwest 405 466 30,600 720 Climbing Boston Center
05:55PM 41.9997 -72.6158 222° Southwest 398 458 31,500 660 Climbing Boston Center
05:56PM 41.9181 -72.7158 222° Southwest 397 457 32,000 240 Climbing Boston Center
05:57PM 41.8431 -72.8200 226° Southwest 390 449 32,000  Level Boston Center
05:58PM 41.7689 -72.9247 227° Southwest 389 448 32,000  Level Boston Center
05:59PM 41.6919 -73.0286 225° Southwest 389 448 32,000  Level Boston Center
06:00PM 41.6153 -73.1317 225° Southwest 390 449 32,000  Level Boston Center
06:01PM 41.5328 -73.2414 225° Southwest 389 448 32,000  Level Boston Center
06:02PM 41.4589 -73.3422 226° Southwest 387 445 32,000  Level Boston Center
06:03PM 41.3842 -73.4417 225° Southwest 384 442 32,000  Level Boston Center
06:04PM 41.3086 -73.5397 224° Southwest 384 442 32,000  Level Boston Center
06:05PM 41.2414 -73.6458 230° Southwest 379 436 32,000  Level Boston Center
06:06PM 41.1658 -73.7772 233° Southwest 376 433 32,000  Level Boston Center
06:07PM 41.1017 -73.8847 232° Southwest 375 432 32,000  Level Boston Center
06:08PM 41.0364 -73.9892 230° Southwest 373 429 32,000  Level Boston Center
06:09PM 40.9733 -74.0944 232° Southwest 370 426 32,000  Level Boston Center
06:10PM 40.9106 -74.1997 232° Southwest 368 423 32,000  Level Boston Center
06:11PM 40.8206 -74.3469 231° Southwest 364 419 32,000  Level New York Center
06:12PM 40.7581 -74.4519 232° Southwest 364 419 32,000  Level New York Center
06:13PM 40.6961 -74.5556 232° Southwest 363 418 32,000  Level New York Center
06:14PM 40.6322 -74.6600 231° Southwest 364 419 32,000  Level New York Center
06:15PM 40.5669 -74.7628 230° Southwest 367 422 32,000  Level New York Center
06:16PM 40.4800 -74.8856 227° Southwest 370 426 32,000  Level New York Center
06:17PM 40.4086 -74.9842 226° Southwest 376 433 32,000  Level New York Center
06:18PM 40.3342 -75.0922 228° Southwest 375 432 32,000  Level New York Center
06:19PM 40.2642 -75.1914 227° Southwest 372 428 32,000  Level New York Center
06:21PM 40.2022 -75.2767 226° Southwest 373 429 32,000  Level New York Center
06:22PM 40.1158 -75.3942 226° Southwest 375 432 32,000  Level New York Center
06:23PM 40.0444 -75.4956 227° Southwest 380 437 32,000  Level New York Center
06:24PM 39.9728 -75.5958 227° Southwest 380 437 32,000  Level New York Center
06:25PM 39.9006 -75.6944 226° Southwest 380 437 32,000  Level New York Center
06:26PM 39.8228 -75.8192 231° Southwest 372 428 32,000  Level New York Center
06:27PM 39.7567 -75.9286 232° Southwest 365 420 32,000  Level New York Center
06:28PM 39.6931 -76.0292 231° Southwest 362 417 32,000 -60 Level New York Center
06:29PM 39.6328 -76.1219 230° Southwest 360 414 31,900  Descending New York Center
06:30PM 39.5703 -76.2269 232° Southwest 366 421 32,000  Climbing Washington Center
06:31PM 39.5092 -76.3258 231° Southwest 366 421 32,000  Level Washington Center
06:32PM 39.4461 -76.4272 231° Southwest 366 421 32,000  Level Washington Center
06:33PM 39.3767 -76.5286 228° Southwest 371 427 32,000  Level Washington Center
06:34PM 39.3111 -76.6242 228° Southwest 371 427 32,000  Level Washington Center
06:35PM 39.2519 -76.7172 231° Southwest 361 415 32,000  Level Washington Center
06:36PM 39.1906 -76.8156 231° Southwest 355 409 32,000  Level Washington Center
06:37PM 39.1272 -76.9106 229° Southwest 355 409 32,000  Level Washington Center
06:38PM 39.0656 -77.0086 231° Southwest 355 409 32,000  Level Washington Center
06:39PM 38.9936 -77.0981 224° Southwest 355 409 32,000  Level Washington Center
06:40PM 38.9092 -77.1842 218° Southwest 374 430 32,000  Level Washington Center
06:41PM 38.8331 -77.2678 221° Southwest 374 430 32,000  Level Washington Center
06:42PM 38.7714 -77.3358 221° Southwest 374 430 32,000  Level Washington Center
06:43PM 38.6867 -77.4269 220° Southwest 374 430 32,000  Level Washington Center
06:44PM 38.6103 -77.5125 221° Southwest 374 430 32,000  Level Washington Center
06:45PM 38.5297 -77.5981 220° Southwest 374 430 32,000 -900 Level Washington Center
06:46PM 38.4531 -77.6861 222° Southwest 374 430 30,300 -1,020 Descending Washington Center
06:47PM 38.3683 -77.7739 219° Southwest 380 437 30,000 -180 Descending Washington Center
06:48PM 38.2872 -77.8614 220° Southwest 387 445 30,000  Level Washington Center
06:49PM 38.2064 -77.9542 222° Southwest 387 445 30,000  Level Washington Center
06:50PM 38.1233 -78.0386 219° Southwest 387 445 30,000  Level Washington Center
06:51PM 38.0358 -78.1281 219° Southwest 387 445 30,000  Level Washington Center
06:52PM 37.9569 -78.2122 220° Southwest 382 440 30,000  Level Washington Center
06:53PM 37.8697 -78.2961 217° Southwest 387 445 30,000  Level Washington Center
06:54PM 37.7800 -78.3794 216° Southwest 400 460 30,000  Level Washington Center
06:55PM 37.6842 -78.4678 216° Southwest 400 460 30,000  Level Washington Center
06:56PM 37.5944 -78.5536 217° Southwest 400 460 30,000  Level Washington Center
06:57PM 37.5089 -78.6367 218° Southwest 400 460 30,000  Level Washington Center
06:58PM 37.4214 -78.7167 216° Southwest 400 460 30,000  Level Washington Center
06:59PM 37.3336 -78.7994 217° Southwest 400 460 30,000  Level Washington Center
07:00PM 37.2525 -78.8717 215° Southwest 400 460 30,000  Level Washington Center
07:01PM 37.1647 -78.9514 216° Southwest 400 460 30,000 -300 Level Washington Center
07:02PM 37.0789 -79.0336 217° Southwest 400 460 29,500 300 Descending Washington Center
07:03PM 36.9931 -79.1156 217° Southwest 400 460 30,700 1,200 Climbing Washington Center
07:04PM 36.8964 -79.2044 216° Southwest 400 460 32,000 600 Climbing Washington Center
07:05PM 36.8086 -79.2783 214° Southwest 394 453 32,000  Level Washington Center
07:06PM 36.7247 -79.3597 218° Southwest 399 459 32,000  Level Washington Center
07:07PM 36.6367 -79.4408 216° Southwest 399 459 32,000  Level Washington Center
07:08PM 36.5506 -79.5194 216° Southwest 399 459 32,000  Level Washington Center
07:09PM 36.4733 -79.5906 217° Southwest 399 459 32,000  Level Washington Center
07:10PM 36.3344 -79.7114 215° Southwest 409 471 32,000  Level Atlanta Center
07:11PM 36.2497 -79.7908 217° Southwest 398 458 32,000  Level Atlanta Center
07:12PM 36.1644 -79.8647 215° Southwest 393 452 32,000  Level Atlanta Center
07:13PM 36.0856 -79.9356 216° Southwest 393 452 32,000  Level Atlanta Center
07:14PM 35.9939 -79.9992 209° Southwest 393 452 32,000  Level Atlanta Center
07:15PM 35.8933 -80.0503 202° Southwest 388 447 32,000  Level Atlanta Center
07:16PM 35.7928 -80.1014 202° Southwest 393 452 32,000  Level Atlanta Center
07:17PM 35.6797 -80.1578 202° Southwest 399 459 32,000  Level Atlanta Center
07:18PM 35.5894 -80.2031 202° Southwest 399 459 32,000  Level Atlanta Center
07:19PM 35.4847 -80.2589 203° Southwest 404 465 32,000  Level Atlanta Center
07:20PM 35.3842 -80.3094 202° Southwest 404 465 32,000  Level Atlanta Center
07:22PM 35.1719 -80.4092 201° Southwest 409 471 32,000  Level Jacksonville Center
07:23PM 35.0667 -80.4631 203° Southwest 409 471 32,000  Level Jacksonville Center
07:24PM 34.9636 -80.5167 203° Southwest 409 471 32,000  Level Jacksonville Center
07:25PM 34.8581 -80.5700 203° Southwest 409 471 32,000  Level Jacksonville Center
07:26PM 34.7486 -80.6261 203° Southwest 407 468 32,000  Level Jacksonville Center
07:27PM 34.6431 -80.6769 202° Southwest 402 463 32,000  Level Jacksonville Center
07:28PM 34.5458 -80.7222 201° Southwest 414 476 32,000  Level Jacksonville Center
07:29PM 34.4444 -80.7650 199° South 407 468 32,000  Level Jacksonville Center
07:30PM 34.3350 -80.8306 206° Southwest 414 476 32,000  Level Jacksonville Center
07:31PM 34.2250 -80.8783 200° South 401 461 32,000  Level Jacksonville Center
07:32PM 34.1217 -80.9283 202° Southwest 401 461 32,000  Level Jacksonville Center
07:33PM 34.0161 -80.9808 202° Southwest 401 461 32,000  Level Jacksonville Center
07:34PM 33.9311 -81.0228 202° Southwest 412 474 32,000  Level Jacksonville Center
07:35PM 33.8006 -81.0806 200° South 412 474 32,000  Level Jacksonville Center
07:36PM 33.6947 -81.1378 204° Southwest 412 474 32,000  Level Jacksonville Center
07:37PM 33.5892 -81.1897 202° Southwest 412 474 32,000  Level Jacksonville Center
07:38PM 33.4833 -81.2414 202° Southwest 412 474 32,000  Level Jacksonville Center
07:39PM 33.3775 -81.2931 202° Southwest 412 474 32,000  Level Jacksonville Center
07:40PM 33.2717 -81.3447 202° Southwest 412 474 32,000  Level Jacksonville Center
07:41PM 33.1658 -81.3939 201° Southwest 412 474 32,000  Level Jacksonville Center
07:42PM 33.0600 -81.4475 203° Southwest 412 474 32,000  Level Jacksonville Center
07:43PM 32.9500 -81.5014 202° Southwest 417 480 32,000  Level Jacksonville Center
07:44PM 32.8400 -81.5550 202° Southwest 417 480 32,000  Level Jacksonville Center
07:45PM 32.7319 -81.6058 202° Southwest 423 487 32,000  Level Jacksonville Center
07:46PM 32.6219 -81.6592 202° Southwest 423 487 32,000  Level Jacksonville Center
07:47PM 32.5097 -81.7150 203° Southwest 435 501 32,000  Level Jacksonville Center
07:48PM 32.3975 -81.7681 202° Southwest 435 501 32,000  Level Jacksonville Center
07:49PM 32.2956 -81.8161 202° Southwest 435 501 32,000  Level Jacksonville Center
07:50PM 32.1728 -81.8764 203° Southwest 435 501 32,000  Level Jacksonville Center
07:51PM 32.0606 -81.9267 201° Southwest 430 495 32,000  Level Jacksonville Center
07:52PM 31.9628 -81.9719 201° Southwest 430 495 32,000  Level Jacksonville Center
07:53PM 31.8356 -82.0097 194° South 430 495 32,000  Level Jacksonville Center
07:54PM 31.7292 -82.0256 187° South 430 495 32,000  Level Jacksonville Center
07:55PM 31.6083 -82.0389 185° South 430 495 32,000  Level Jacksonville Center
07:56PM 31.4936 -82.0594 189° South 430 495 32,000  Level Jacksonville Center
07:57PM 31.3747 -82.0822 189° South 430 495 32,000  Level Jacksonville Center
07:58PM 31.2581 -82.1028 189° South 425 489 32,000  Level Jacksonville Center
07:59PM 31.1411 -82.1231 188° South 425 489 32,000  Level Jacksonville Center
08:00PM 31.0200 -82.1364 185° South 425 489 32,000  Level Jacksonville Center
08:01PM 30.9033 -82.1542 187° South 430 495 32,000  Level Jacksonville Center
08:02PM 30.7822 -82.1744 188° South 430 495 32,000  Level Jacksonville Center
08:03PM 30.6633 -82.1947 188° South 430 495 32,000  Level Jacksonville Center
08:04PM 30.5319 -82.2100 186° South 430 495 32,000  Level Jacksonville Center
08:05PM 30.4131 -82.2278 187° South 430 495 32,000  Level Jacksonville Center
08:06PM 30.2961 -82.2478 188° South 424 488 32,000  Level Jacksonville Center
08:07PM 30.1772 -82.2678 188° South 424 488 32,000  Level Jacksonville Center
08:08PM 30.0564 -82.2831 186° South 429 494 32,000 -60 Level Jacksonville Center
08:09PM 29.9478 -82.3053 190° South 435 501 31,900 -720 Descending Jacksonville Center
08:10PM 29.8289 -82.3253 188° South 435 501 30,600 -1,500 Descending Jacksonville Center
08:11PM 29.6953 -82.3428 186° South 440 506 29,000 -1,320 Descending Jacksonville Center
08:12PM 29.5744 -82.3528 184° South 445 512 28,000 -1,020 Descending Jacksonville Center
08:13PM 29.4469 -82.3322 172° South 445 512 27,000 -1,560 Descending Jacksonville Center
08:14PM 29.3256 -82.3042 169° South 445 512 24,900 -2,400 Descending Jacksonville Center
08:15PM 29.2025 -82.2789 170° South 445 512 22,300 -2,700 Descending Jacksonville Center
08:16PM 29.0833 -82.2628 173° South 445 512 19,500 -2,760 Descending Jacksonville Center
08:17PM 28.9706 -82.2636 180° South 433 498 16,800 -2,220 Descending Jacksonville Center
08:18PM 28.8706 -82.2667 182° South 419 482 15,100 -1,440 Descending Jacksonville Center
08:20PM 28.6833 -82.2500 176° South 327 376 13,000 -1,020 Descending Tampa TRACON
08:21PM 28.6000 -82.2500 180° South 289 333 12,400 -720 Descending Tampa TRACON
08:22PM 28.5500 -82.2833 210° Southwest 284 327 11,600 -960 Descending Tampa TRACON
08:23PM 28.5167 -82.3667 246° West 279 321 10,600 -780 Descending Tampa TRACON
08:24PM 28.4667 -82.4500 236° Southwest 279 321 10,000 -600 Descending Tampa TRACON
08:25PM 28.4333 -82.5333 246° West 274 315 9,400 -960 Descending Tampa TRACON
08:26PM 28.4000 -82.6167 246° West 274 315 8,100 -1,560 Descending Tampa TRACON
08:27PM 28.3500 -82.6667 221° Southwest 269 310 6,300 -1,800 Descending Tampa TRACON
08:28PM 28.3000 -82.7167 221° Southwest 270 311 4,600 -1,200 Descending Tampa TRACON
08:29PM 28.2167 -82.7500 199° South 268 308 4,000 -480 Descending Tampa TRACON
08:30PM 28.1500 -82.7333 168° South 239 275 3,700 -360 Descending Tampa TRACON
08:31PM 28.1000 -82.7167 164° South 196 226 3,300 -720 Descending Tampa TRACON
08:32PM 28.0500 -82.7167 180° South 193 222 2,300 -900 Descending Tampa TRACON
08:33PM 28.0000 -82.7000 164° South 150 173 1,600 -780 Descending Tampa TRACON
08:34PM 27.9667 -82.7000 180° South 131 151 800 -780 Descending Tampa TRACON